Time;durP1;ratioP1;P1;durP2;ratioP2;P2;SDS_P1;SDS_P2;PMS_P1;PMS_P2;Temp;Humidity;BMP_temperature;BMP_pressure;BME280_temperature;BME280_humidity;BME280_pressure;Samples;Min_cycle;Max_cycle;Signal;HPM_P1;HPM_P2
2023/03/02 00:01:07;;;;;;;51.65;24.27;;;2.80;99.90;;;;;;6244449;22;20461;-81
2023/03/02 00:03:35;;;;;;;52.42;25.45;;;2.80;99.90;;;;;;6219836;22;20331;-82
2023/03/02 00:06:02;;;;;;;54.95;25.83;;;2.80;99.90;;;;;;6244615;22;20024;-82
2023/03/02 00:08:28;;;;;;;54.38;25.63;;;2.80;99.90;;;;;;6194863;22;20105;-83
2023/03/02 00:10:55;;;;;;;54.00;24.35;;;2.80;99.90;;;;;;6244966;22;20043;-82
2023/03/02 00:13:21;;;;;;;50.78;23.33;;;3.10;99.90;;;;;;6219602;22;20026;-81
2023/03/02 00:15:47;;;;;;;47.97;21.88;;;2.80;99.90;;;;;;6244979;22;20011;-82
2023/03/02 00:18:12;;;;;;;53.78;25.13;;;3.20;99.90;;;;;;6246005;22;20594;-81
2023/03/02 00:20:38;;;;;;;51.47;23.77;;;2.70;99.90;;;;;;6245367;22;20019;-85
2023/03/02 00:23:04;;;;;;;53.72;23.75;;;2.70;99.90;;;;;;6206471;22;20016;-81
2023/03/02 00:25:29;;;;;;;51.50;23.92;;;2.70;99.90;;;;;;6258025;22;20011;-82
2023/03/02 00:27:55;;;;;;;46.20;23.13;;;2.70;99.90;;;;;;6231675;22;20022;-84
2023/03/02 00:30:21;;;;;;;48.55;22.85;;;2.70;99.90;;;;;;6281798;22;20023;-82
2023/03/02 00:32:47;;;;;;;50.55;23.45;;;2.40;99.90;;;;;;6250033;22;20450;-81
2023/03/02 00:35:12;;;;;;;45.53;22.65;;;2.70;99.90;;;;;;6222577;22;20381;-81
2023/03/02 00:37:38;;;;;;;47.22;21.00;;;2.60;99.90;;;;;;6220632;22;20015;-82
2023/03/02 00:40:05;;;;;;;49.97;23.10;;;2.70;99.90;;;;;;6219691;22;20019;-81
2023/03/02 00:42:32;;;;;;;47.38;21.55;;;2.60;99.90;;;;;;6220766;22;20457;-81
2023/03/02 00:45:00;;;;;;;46.83;20.42;;;2.70;99.90;;;;;;6270142;22;20629;-81
2023/03/02 00:47:29;;;;;;;46.83;21.73;;;2.60;99.90;;;;;;6245116;22;20106;-81
2023/03/02 00:49:55;;;;;;;55.53;23.55;;;2.60;99.90;;;;;;6219139;22;20020;-82
2023/03/02 00:52:21;;;;;;;50.50;23.50;;;2.80;99.90;;;;;;6220588;22;20098;-83
2023/03/02 00:54:47;;;;;;;52.33;23.13;;;2.60;99.90;;;;;;6193880;22;20016;-81
2023/03/02 00:57:12;;;;;;;47.30;23.63;;;2.60;99.90;;;;;;6219921;22;20055;-82
2023/03/02 00:59:38;;;;;;;50.95;23.00;;;2.60;99.90;;;;;;6219372;22;20016;-82
2023/03/02 01:02:05;;;;;;;47.67;23.55;;;2.50;99.90;;;;;;6243911;22;20016;-84
2023/03/02 01:04:39;;;;;;;52.00;23.27;;;2.60;99.90;;;;;;6219392;22;20020;-82
2023/03/02 01:07:09;;;;;;;49.55;23.10;;;3.10;99.90;;;;;;6243526;22;20018;-82
2023/03/02 01:09:36;;;;;;;54.78;24.38;;;2.60;99.90;;;;;;6219612;22;20022;-82
2023/03/02 01:12:01;;;;;;;55.92;25.17;;;2.70;99.90;;;;;;6243519;22;20015;-81
2023/03/02 01:14:27;;;;;;;55.35;26.02;;;2.60;99.90;;;;;;6219284;22;20019;-82
2023/03/02 01:16:53;;;;;;;52.90;24.27;;;2.60;99.90;;;;;;6242910;22;20322;-82
2023/03/02 01:19:19;;;;;;;57.70;24.50;;;2.60;99.90;;;;;;6219932;22;20016;-81
2023/03/02 01:21:44;;;;;;;56.38;26.23;;;2.60;99.90;;;;;;6218898;22;20014;-82
2023/03/02 01:24:11;;;;;;;57.47;25.27;;;3.00;99.90;;;;;;6218434;22;20016;-82
2023/03/02 01:26:37;;;;;;;56.17;24.80;;;2.50;99.90;;;;;;6243653;22;20012;-82
2023/03/02 01:29:03;;;;;;;54.50;24.38;;;2.50;99.90;;;;;;6243833;22;20023;-82
2023/03/02 01:31:30;;;;;;;53.08;23.80;;;2.50;99.90;;;;;;6243095;22;20016;-81
2023/03/02 01:33:56;;;;;;;57.75;25.33;;;2.50;99.90;;;;;;6218562;22;20008;-82
2023/03/02 01:36:22;;;;;;;53.95;24.50;;;2.90;99.90;;;;;;6217592;22;20376;-82
2023/03/02 01:38:49;;;;;;;60.72;25.63;;;2.40;99.90;;;;;;6244025;22;20020;-82
2023/03/02 01:41:15;;;;;;;54.75;24.80;;;2.40;99.90;;;;;;6218693;22;20018;-83
2023/03/02 01:43:41;;;;;;;55.15;25.33;;;2.30;99.90;;;;;;6244247;22;20077;-83
2023/03/02 01:46:16;;;;;;;58.33;25.20;;;2.30;99.90;;;;;;6217487;22;20019;-82
2023/03/02 01:48:53;;;;;;;53.35;24.55;;;2.50;99.90;;;;;;6218819;22;20071;-83
2023/03/02 01:51:25;;;;;;;51.67;24.23;;;2.50;99.90;;;;;;6218820;22;20038;-82
2023/03/02 01:54:00;;;;;;;58.30;24.95;;;2.50;99.90;;;;;;6241600;22;20065;-84
2023/03/02 01:56:31;;;;;;;53.38;23.60;;;2.50;99.90;;;;;;6243209;22;20382;-83
2023/03/02 01:59:07;;;;;;;51.70;23.92;;;2.50;99.90;;;;;;6243255;22;20730;-82
2023/03/02 02:01:35;;;;;;;;;;;2.50;99.90;;;;;;6244468;22;20007;-82
2023/03/02 02:04:01;;;;;;;50.53;23.00;;;2.40;99.90;;;;;;6243716;22;19923;-82
2023/03/02 02:06:38;;;;;;;52.17;24.02;;;2.40;99.90;;;;;;6243153;22;20436;-82
2023/03/02 02:09:08;;;;;;;59.45;25.85;;;2.40;99.90;;;;;;6218213;22;20105;-82
2023/03/02 02:11:34;;;;;;;51.20;24.40;;;2.40;99.90;;;;;;6243792;22;20024;-83
2023/03/02 02:14:01;;;;;;;58.58;25.55;;;2.30;99.90;;;;;;6217957;22;20047;-84
2023/03/02 02:16:29;;;;;;;52.17;24.17;;;2.40;99.90;;;;;;6238368;22;20020;-83
2023/03/02 02:18:56;;;;;;;52.92;24.02;;;2.30;99.90;;;;;;6242749;22;20026;-84
2023/03/02 02:21:23;;;;;;;52.40;23.83;;;2.30;99.90;;;;;;6218069;22;20030;-83
2023/03/02 02:24:11;;;;;;;52.65;24.20;;;2.20;99.90;;;;;;6243497;22;20020;-82
2023/03/02 02:26:49;;;;;;;59.05;24.70;;;2.30;99.90;;;;;;6243755;22;20058;-83
2023/03/02 02:29:21;;;;;;;50.08;22.20;;;2.40;99.90;;;;;;6217501;22;20423;-82
2023/03/02 02:32:01;;;;;;;59.20;25.10;;;2.60;99.90;;;;;;6243270;22;20327;-82
2023/03/02 02:34:45;;;;;;;55.83;24.90;;;2.20;99.90;;;;;;6243904;22;20016;-82
2023/03/02 02:37:15;;;;;;;58.40;24.23;;;2.20;99.90;;;;;;6217514;22;20020;-82
2023/03/02 02:39:45;;;;;;;54.88;25.08;;;2.20;99.90;;;;;;6243187;22;20102;-84
2023/03/02 02:42:22;;;;;;;55.90;24.42;;;1.90;99.90;;;;;;6243557;22;20055;-83
2023/03/02 02:44:50;;;;;;;55.83;23.60;;;2.10;99.90;;;;;;6242694;22;20023;-82
2023/03/02 02:47:20;;;;;;;58.00;24.50;;;2.30;99.90;;;;;;6242789;22;20031;-83
2023/03/02 02:49:48;;;;;;;61.08;25.13;;;2.10;99.90;;;;;;6242888;22;20102;-83
2023/03/02 02:52:18;;;;;;;66.22;26.25;;;2.10;99.90;;;;;;6218343;22;20046;-83
2023/03/02 03:13:11;;;;;;;81.25;25.20;;;2.00;1.00;;;;;;6254176;22;20050;-84
2023/03/02 03:15:37;;;;;;;76.15;25.83;;;1.70;1.00;;;;;;6244743;22;20019;-77
2023/03/02 03:18:02;;;;;;;93.55;29.30;;;1.90;1.00;;;;;;6220621;22;20023;-84
2023/03/02 03:20:28;;;;;;;82.45;27.98;;;1.90;99.90;;;;;;6246751;22;20094;-82
2023/03/02 03:22:54;;;;;;;73.15;26.98;;;1.90;99.90;;;;;;6273962;22;20030;-77
2023/03/02 03:25:23;;;;;;;76.45;27.73;;;1.90;99.90;;;;;;6220976;22;20022;-81
2023/03/02 03:27:49;;;;;;;77.53;26.70;;;1.90;99.90;;;;;;6246596;22;20015;-77
2023/03/02 03:30:16;;;;;;;85.13;26.75;;;1.90;99.90;;;;;;6222438;22;20066;-79
2023/03/02 03:32:42;;;;;;;88.07;26.60;;;1.80;99.90;;;;;;6274360;22;20398;-79
2023/03/02 03:35:10;;;;;;;80.75;26.58;;;2.00;99.90;;;;;;6274463;22;20042;-77
2023/03/02 03:37:38;;;;;;;80.32;27.08;;;1.80;99.90;;;;;;6246973;22;20015;-79
2023/03/02 03:40:06;;;;;;;90.72;28.33;;;1.80;99.90;;;;;;6273758;22;20051;-77
2023/03/02 03:42:32;;;;;;;86.38;27.50;;;1.80;99.90;;;;;;6196563;22;20085;-77
2023/03/02 03:44:57;;;;;;;93.53;27.13;;;1.80;99.90;;;;;;6247003;22;20011;-77
2023/03/02 03:47:23;;;;;;;89.78;26.33;;;1.80;99.90;;;;;;6221610;22;20024;-78
2023/03/02 03:49:49;;;;;;;77.03;27.13;;;1.80;1.00;;;;;;6246044;22;20020;-77
2023/03/02 03:52:15;;;;;;;83.07;27.92;;;1.70;1.00;;;;;;6273223;22;20019;-79
2023/03/02 03:54:41;;;;;;;86.68;26.25;;;1.80;1.00;;;;;;6219983;22;20023;-77
2023/03/02 03:57:06;;;;;;;106.32;28.13;;;1.80;1.00;;;;;;6273810;22;20023;-77
2023/03/02 03:59:32;;;;;;;97.22;26.42;;;1.80;1.00;;;;;;6274020;22;20031;-83
2023/03/02 04:02:00;;;;;;;119.47;25.70;;;1.80;1.00;;;;;;6247891;22;20150;-78
2023/03/02 04:04:29;;;;;;;92.53;25.92;;;2.00;1.00;;;;;;6247512;22;20100;-77
2023/03/02 04:06:55;;;;;;;97.82;26.85;;;2.00;1.00;;;;;;6246882;22;20043;-77
2023/03/02 04:09:23;;;;;;;100.88;28.50;;;1.70;1.00;;;;;;6245867;22;20073;-78
2023/03/02 04:11:51;;;;;;;109.25;27.95;;;1.90;1.00;;;;;;6245384;22;20015;-79
2023/03/02 04:14:18;;;;;;;93.03;27.30;;;1.70;1.00;;;;;;6245889;22;20031;-78
2023/03/02 04:16:44;;;;;;;116.65;26.27;;;2.20;1.00;;;;;;6246143;22;20050;-77
2023/03/02 04:19:11;;;;;;;97.57;28.05;;;1.70;1.00;;;;;;6247088;22;20016;-77
2023/03/02 04:21:43;;;;;;;99.10;27.30;;;1.70;1.00;;;;;;6274036;22;20399;-77
2023/03/02 04:24:09;;;;;;;95.32;27.77;;;1.70;1.00;;;;;;6273120;22;20026;-77
2023/03/02 04:26:37;;;;;;;112.68;26.63;;;1.70;1.00;;;;;;6246246;22;20016;-84
2023/03/02 04:29:03;;;;;;;106.68;26.77;;;1.70;1.00;;;;;;6246533;22;20548;-77
2023/03/02 04:31:32;;;;;;;100.72;26.70;;;1.70;1.00;;;;;;6247048;22;20019;-77
2023/03/02 04:33:59;;;;;;;96.57;27.75;;;1.50;1.00;;;;;;6246387;22;20095;-77
2023/03/02 04:36:25;;;;;;;117.13;26.42;;;1.60;1.00;;;;;;6247393;22;20015;-77
2023/03/02 04:38:51;;;;;;;126.82;28.73;;;1.60;1.00;;;;;;6220736;22;20020;-78
2023/03/02 04:41:18;;;;;;;112.30;27.23;;;1.60;1.00;;;;;;6221875;22;20382;-77
2023/03/02 04:43:44;;;;;;;99.53;27.67;;;1.60;1.00;;;;;;6221929;22;20327;-77
2023/03/02 04:46:15;;;;;;;110.78;26.75;;;1.60;1.00;;;;;;6273880;22;20015;-78
2023/03/02 04:48:41;;;;;;;106.40;26.17;;;1.60;1.00;;;;;;6245700;22;20034;-78
2023/03/02 04:51:15;;;;;;;94.75;26.33;;;1.90;1.00;;;;;;6247021;22;20112;-77
2023/03/02 04:53:41;;;;;;;134.52;28.30;;;1.70;1.00;;;;;;6246324;22;20019;-77
2023/03/02 04:56:07;;;;;;;117.53;27.38;;;1.60;1.00;;;;;;6246895;22;20020;-77
2023/03/02 04:58:32;;;;;;;158.20;29.65;;;1.50;1.00;;;;;;6246835;22;20059;-77
2023/03/02 05:01:01;;;;;;;162.68;29.58;;;1.50;1.00;;;;;;6245721;22;20081;-77
2023/03/02 05:03:27;;;;;;;148.10;26.92;;;1.50;1.00;;;;;;6245314;22;20020;-78
2023/03/02 05:05:53;;;;;;;151.93;27.92;;;1.40;1.00;;;;;;6245480;22;20032;-77
2023/03/02 05:08:18;;;;;;;123.47;27.38;;;1.50;1.00;;;;;;6272093;22;20348;-78
2023/03/02 05:10:44;;;;;;;158.45;27.30;;;1.50;1.00;;;;;;6246348;22;20020;-77
2023/03/02 05:13:10;;;;;;;176.10;28.65;;;1.40;1.00;;;;;;6245977;22;20457;-77
2023/03/02 05:15:38;;;;;;;135.60;27.60;;;1.40;1.00;;;;;;6221036;22;20027;-77
2023/03/02 05:18:06;;;;;;;121.47;28.00;;;1.40;1.00;;;;;;6244858;22;20018;-77
2023/03/02 05:20:33;;;;;;;113.93;22.77;;;1.40;1.00;;;;;;6245178;22;20349;-77
2023/03/02 05:23:05;;;;;;;130.75;26.70;;;1.40;1.00;;;;;;6245362;22;20020;-78
2023/03/02 05:25:33;;;;;;;136.60;27.38;;;1.30;1.00;;;;;;6245332;22;20019;-77
2023/03/02 05:28:00;;;;;;;130.30;27.30;;;1.30;1.00;;;;;;6244818;22;20458;-76
2023/03/02 05:30:26;;;;;;;125.32;28.88;;;1.30;1.00;;;;;;6219139;22;20011;-76
2023/03/02 05:32:53;;;;;;;175.07;30.55;;;1.40;1.00;;;;;;6272560;22;20446;-77
2023/03/02 05:35:20;;;;;;;174.80;30.42;;;1.50;1.00;;;;;;6245582;22;20016;-80
2023/03/02 05:37:46;;;;;;;192.10;29.85;;;1.30;1.00;;;;;;6245278;22;20019;-82
2023/03/02 05:40:15;;;;;;;182.27;29.98;;;1.40;1.00;;;;;;6246083;22;20047;-79
2023/03/02 05:42:42;;;;;;;151.57;29.80;;;1.30;1.00;;;;;;6246193;22;20085;-80
2023/03/02 05:45:15;;;;;;;159.05;30.52;;;1.40;1.00;;;;;;6245715;22;20023;-77
2023/03/02 05:47:41;;;;;;;184.05;29.77;;;1.40;1.00;;;;;;6272550;22;20507;-79
2023/03/02 05:50:07;;;;;;;172.40;30.63;;;1.30;1.00;;;;;;6218939;22;20051;-84
2023/03/02 05:52:33;;;;;;;151.45;31.08;;;1.40;1.00;;;;;;6245094;22;20103;-77
2023/03/02 05:54:59;;;;;;;172.88;30.08;;;1.40;1.00;;;;;;6219550;22;20392;-78
2023/03/02 05:57:24;;;;;;;186.65;30.67;;;1.40;1.00;;;;;;6246015;22;20012;-77
2023/03/02 05:59:50;;;;;;;194.18;28.77;;;1.30;1.00;;;;;;6244707;22;20024;-76
2023/03/02 06:02:16;;;;;;;148.18;26.33;;;1.40;1.00;;;;;;6221028;22;20026;-79
2023/03/02 06:04:43;;;;;;;168.43;29.33;;;1.20;1.00;;;;;;6194610;22;20023;-76
2023/03/02 06:07:12;;;;;;;190.02;29.90;;;1.30;1.00;;;;;;6194999;22;20023;-78
2023/03/02 06:09:38;;;;;;;169.77;30.90;;;1.20;1.00;;;;;;6271116;22;20051;-76
2023/03/02 06:12:05;;;;;;;171.30;27.42;;;1.20;1.00;;;;;;6233157;23;20055;-78
2023/03/02 06:14:31;;;;;;;175.93;30.45;;;1.20;1.00;;;;;;6209949;23;20027;-77
2023/03/02 06:16:57;;;;;;;185.05;31.13;;;1.00;1.00;;;;;;6212053;23;20063;-79
2023/03/02 06:19:23;;;;;;;183.85;31.45;;;1.20;1.00;;;;;;6210623;23;20440;-77
2023/03/02 06:21:48;;;;;;;154.27;30.85;;;1.20;1.00;;;;;;6212574;23;20031;-79
2023/03/02 06:24:14;;;;;;;201.55;30.63;;;1.20;1.00;;;;;;6210816;23;20021;-78
2023/03/02 06:26:40;;;;;;;164.40;30.13;;;1.80;1.00;;;;;;6186884;23;20016;-76
2023/03/02 06:29:06;;;;;;;172.35;29.85;;;1.20;1.00;;;;;;6184051;23;20021;-76
2023/03/02 06:31:33;;;;;;;157.70;29.10;;;1.20;1.00;;;;;;6211011;23;20043;-78
2023/03/02 06:33:59;;;;;;;170.52;30.13;;;1.40;1.00;;;;;;6210589;23;20021;-78
2023/03/02 06:36:25;;;;;;;135.90;30.15;;;1.20;1.00;;;;;;6210348;23;20097;-77
2023/03/02 06:38:51;;;;;;;126.25;28.98;;;1.20;1.00;;;;;;6210352;23;20017;-76
2023/03/02 06:41:16;;;;;;;129.95;29.45;;;1.30;1.00;;;;;;6184778;23;20056;-78
2023/03/02 06:43:42;;;;;;;130.50;29.20;;;1.30;1.00;;;;;;6209002;23;20025;-82
2023/03/02 06:46:08;;;;;;;115.68;28.77;;;1.30;1.00;;;;;;6210577;23;20024;-76
2023/03/02 06:48:34;;;;;;;127.72;29.40;;;1.60;1.00;;;;;;6213455;23;20463;-80
2023/03/02 06:51:00;;;;;;;124.07;27.73;;;1.30;1.00;;;;;;6212920;23;20025;-77
2023/03/02 06:53:26;;;;;;;98.80;26.92;;;1.40;1.00;;;;;;6213216;23;20024;-76
2023/03/02 06:55:52;;;;;;;95.55;26.33;;;1.20;1.00;;;;;;6212906;23;20083;-80
2023/03/02 06:58:17;;;;;;;91.68;25.40;;;1.40;1.00;;;;;;6213275;23;20096;-77
2023/03/02 07:00:43;;;;;;;95.45;26.98;;;1.40;1.00;;;;;;6212232;23;20016;-77
2023/03/02 07:03:09;;;;;;;112.50;26.45;;;1.40;1.00;;;;;;6211455;23;20028;-81
2023/03/02 07:05:35;;;;;;;96.50;25.65;;;1.40;1.00;;;;;;6211003;23;20035;-82
2023/03/02 07:08:01;;;;;;;93.55;26.35;;;1.40;1.00;;;;;;6208817;23;20555;-84
2023/03/02 07:10:27;;;;;;;98.60;25.05;;;1.40;1.00;;;;;;6209857;23;20059;-84
2023/03/02 07:12:53;;;;;;;104.50;26.33;;;1.40;1.00;;;;;;6185252;23;20799;-83
2023/03/02 07:15:19;;;;;;;97.13;26.25;;;1.40;1.00;;;;;;6209936;23;20024;-81
2023/03/02 07:17:45;;;;;;;89.10;24.92;;;1.40;1.00;;;;;;6209994;23;20024;-82
2023/03/02 07:20:14;;;;;;;102.47;25.98;;;1.40;1.00;;;;;;6185394;23;20020;-84
2023/03/02 07:22:41;;;;;;;103.57;25.48;;;1.50;1.00;;;;;;6208148;23;20444;-81
2023/03/02 07:25:08;;;;;;;96.30;24.00;;;1.40;1.00;;;;;;6184765;23;20661;-81
2023/03/02 07:27:33;;;;;;;99.35;25.05;;;1.50;1.00;;;;;;6209972;23;20025;-82
2023/03/02 07:29:59;;;;;;;115.13;25.35;;;1.50;1.00;;;;;;6210358;23;20013;-83
2023/03/02 07:32:25;;;;;;;126.72;25.08;;;1.40;1.00;;;;;;6209798;23;20013;-81
2023/03/02 07:34:51;;;;;;;84.63;22.67;;;1.40;1.00;;;;;;6210963;23;20016;-80
2023/03/02 07:37:16;;;;;;;95.93;22.98;;;1.50;1.00;;;;;;6211574;23;20462;-81
2023/03/02 07:39:42;;;;;;;83.88;23.05;;;1.50;1.00;;;;;;6186052;23;20032;-82
2023/03/02 07:42:11;;;;;;;87.38;24.85;;;1.40;1.00;;;;;;6185568;23;20436;-82
2023/03/02 07:44:36;;;;;;;86.20;22.75;;;1.50;1.00;;;;;;6210845;23;20031;-82
2023/03/02 07:47:02;;;;;;;96.85;23.52;;;1.20;1.00;;;;;;6184809;23;20099;-83
2023/03/02 07:49:28;;;;;;;78.00;22.58;;;1.40;1.00;;;;;;6185080;23;20021;-81
2023/03/02 07:51:54;;;;;;;75.63;22.63;;;1.30;1.00;;;;;;6208841;23;20022;-82
2023/03/02 07:54:20;;;;;;;79.57;21.70;;;1.50;1.00;;;;;;6209829;23;20042;-82
2023/03/02 07:56:45;;;;;;;78.18;22.92;;;1.50;1.00;;;;;;6211360;23;20021;-82
2023/03/02 07:59:12;;;;;;;65.60;22.48;;;1.50;1.00;;;;;;6184160;23;20020;-82
2023/03/02 08:01:38;;;;;;;63.70;21.23;;;1.60;1.00;;;;;;6208830;23;20059;-82
2023/03/02 08:04:03;;;;;;;68.70;24.92;;;1.60;1.00;;;;;;6210726;23;20098;-83
2023/03/02 08:06:29;;;;;;;73.95;22.40;;;1.60;1.00;;;;;;6209901;23;20067;-82
2023/03/02 08:08:55;;;;;;;98.97;24.35;;;1.70;1.00;;;;;;6159004;23;20490;-82
2023/03/02 08:11:21;;;;;;;63.35;22.00;;;1.80;1.00;;;;;;6207801;23;20024;-82
2023/03/02 08:13:47;;;;;;;62.55;23.42;;;1.80;1.00;;;;;;6209058;23;20016;-82
2023/03/02 08:16:14;;;;;;;69.97;25.00;;;1.90;1.00;;;;;;6209177;23;20024;-82
2023/03/02 08:18:40;;;;;;;77.57;23.48;;;1.90;1.00;;;;;;6210328;23;20336;-82
2023/03/02 08:21:18;;;;;;;81.32;25.13;;;2.00;1.00;;;;;;6209952;23;20155;-82
2023/03/02 08:23:44;;;;;;;68.90;25.23;;;2.40;1.00;;;;;;6209279;23;20111;-82
2023/03/02 08:26:10;;;;;;;64.70;25.83;;;2.00;1.00;;;;;;6209740;23;20025;-82
2023/03/02 08:28:36;;;;;;;63.88;23.60;;;2.10;1.00;;;;;;6184978;23;20495;-82
2023/03/02 08:31:02;;;;;;;61.58;22.38;;;2.10;1.00;;;;;;6210315;23;20024;-82
2023/03/02 08:33:29;;;;;;;62.00;23.40;;;2.20;1.00;;;;;;6183831;23;20017;-83
2023/03/02 08:36:01;;;;;;;56.70;22.90;;;2.20;1.00;;;;;;6209305;23;20091;-80
2023/03/02 08:38:28;;;;;;;66.78;23.30;;;2.30;1.00;;;;;;6210571;23;20017;-81
2023/03/02 08:40:54;;;;;;;75.18;21.85;;;2.40;1.00;;;;;;6183534;23;20099;-82
2023/03/02 08:43:22;;;;;;;63.80;22.50;;;2.40;1.00;;;;;;6184162;23;20448;-82
2023/03/02 08:45:53;;;;;;;71.30;22.10;;;2.30;1.00;;;;;;6210935;23;20020;-82
2023/03/02 08:48:20;;;;;;;61.10;22.35;;;2.40;1.00;;;;;;6208339;23;20449;-83
2023/03/02 08:51:04;;;;;;;63.70;21.25;;;2.30;1.00;;;;;;6209510;23;20021;-82
2023/03/02 08:53:33;;;;;;;61.75;23.40;;;2.30;1.00;;;;;;6211234;23;20021;-81
2023/03/02 08:55:59;;;;;;;61.30;22.08;;;2.70;1.00;;;;;;6208637;23;20122;-82
2023/03/02 08:58:25;;;;;;;63.75;22.65;;;2.40;99.90;;;;;;6183302;23;20384;-81
2023/03/02 09:00:51;;;;;;;53.50;19.35;;;2.40;99.90;;;;;;6184927;23;20024;-81
2023/03/02 09:03:16;;;;;;;57.25;21.17;;;2.40;99.90;;;;;;6184114;23;20120;-82
2023/03/02 09:05:43;;;;;;;53.25;20.52;;;2.40;99.90;;;;;;6182700;23;20029;-82
2023/03/02 09:08:08;;;;;;;56.75;20.63;;;2.40;99.90;;;;;;6208871;23;20032;-82
2023/03/02 09:10:35;;;;;;;52.42;19.80;;;2.50;99.90;;;;;;6207670;23;20031;-82
2023/03/02 09:13:01;;;;;;;49.60;21.00;;;2.60;99.90;;;;;;6209156;23;20020;-81
2023/03/02 09:15:27;;;;;;;54.90;20.50;;;2.50;99.90;;;;;;6185083;23;20024;-81
2023/03/02 09:17:53;;;;;;;42.50;20.02;;;2.40;99.90;;;;;;6210527;23;20382;-81
2023/03/02 09:20:19;;;;;;;43.00;19.52;;;2.60;99.90;;;;;;6184183;23;20060;-81
2023/03/02 09:22:49;;;;;;;45.20;20.33;;;2.70;99.90;;;;;;6211468;23;20092;-83
2023/03/02 09:25:16;;;;;;;47.67;20.00;;;2.80;99.90;;;;;;6209677;23;20354;-85
2023/03/02 09:27:42;;;;;;;47.00;19.65;;;2.90;99.90;;;;;;6184561;23;20260;-82
2023/03/02 09:30:08;;;;;;;41.30;18.75;;;3.10;99.90;;;;;;6185749;23;20020;-80
2023/03/02 09:32:34;;;;;;;43.92;19.23;;;3.20;99.90;;;;;;6210739;23;20052;-80
2023/03/02 09:35:00;;;;;;;42.00;19.55;;;3.20;99.90;;;;;;6186608;23;20027;-80
2023/03/02 09:37:29;;;;;;;42.55;20.17;;;3.30;99.90;;;;;;6184437;23;20494;-79
2023/03/02 09:39:54;;;;;;;43.53;19.88;;;3.30;99.90;;;;;;6183548;23;20017;-82
2023/03/02 09:42:32;;;;;;;43.83;19.90;;;3.60;99.90;;;;;;6209986;23;20040;-85
2023/03/02 09:45:44;;;;;;;47.97;20.10;;;3.50;99.90;;;;;;6184751;23;20021;-81
2023/03/02 09:48:16;;;;;;;40.20;20.05;;;3.60;99.90;;;;;;6174179;23;20509;-81
2023/03/02 09:51:05;;;;;;;47.72;19.77;;;3.60;99.90;;;;;;6209684;23;20107;-80
2023/03/02 09:53:51;;;;;;;51.05;20.27;;;3.70;99.90;;;;;;6208821;23;20021;-83
2023/03/02 09:56:18;;;;;;;41.25;19.75;;;3.70;99.90;;;;;;6209382;23;20013;-81
2023/03/02 09:58:55;;;;;;;44.55;20.25;;;3.60;99.90;;;;;;6210721;23;20055;-79
2023/03/02 10:01:34;;;;;;;42.10;19.83;;;3.60;99.90;;;;;;6183697;23;20025;-84
2023/03/02 10:04:20;;;;;;;38.28;19.35;;;3.60;99.90;;;;;;6209204;23;20020;-80
2023/03/02 10:06:45;;;;;;;39.22;19.73;;;3.70;99.90;;;;;;6207346;23;20059;-81
2023/03/02 10:09:11;;;;;;;41.88;20.25;;;3.80;99.90;;;;;;6208487;23;20767;-82
2023/03/02 10:11:58;;;;;;;41.45;20.20;;;3.90;99.90;;;;;;6211303;22;20024;-79
2023/03/02 10:14:31;;;;;;;39.53;18.80;;;4.10;99.90;;;;;;6270614;22;20099;-81
2023/03/02 10:17:15;;;;;;;40.40;19.42;;;4.10;99.90;;;;;;6271972;22;20351;-82
2023/03/02 10:19:46;;;;;;;40.20;18.75;;;4.20;99.90;;;;;;6245141;22;20103;-85
2023/03/02 10:22:34;;;;;;;36.03;18.17;;;4.40;99.90;;;;;;6245918;22;20081;-83
2023/03/02 10:25:25;;;;;;;36.22;19.10;;;4.50;99.90;;;;;;6219755;22;20069;-82
2023/03/02 10:27:59;;;;;;;32.97;17.08;;;4.70;99.90;;;;;;6217978;22;20027;-82
2023/03/02 10:30:35;;;;;;;38.70;18.65;;;4.80;99.90;;;;;;6242417;22;20026;-83
2023/03/02 10:33:12;;;;;;;34.83;17.20;;;4.80;99.90;;;;;;6243927;22;20106;-80
2023/03/02 10:35:48;;;;;;;38.55;18.73;;;5.00;99.90;;;;;;6218041;22;20451;-81
2023/03/02 10:38:23;;;;;;;38.03;19.48;;;5.00;99.90;;;;;;6244079;22;20027;-83
2023/03/02 10:40:58;;;;;;;35.50;17.88;;;5.20;89.50;;;;;;6243319;22;20059;-82
2023/03/02 10:43:47;;;;;;;36.70;17.55;;;5.20;57.70;;;;;;6270551;22;20023;-84
2023/03/02 10:46:13;;;;;;;39.00;18.83;;;5.30;69.00;;;;;;6271989;22;20023;-80
2023/03/02 10:48:51;;;;;;;37.05;18.67;;;5.40;67.20;;;;;;6243116;22;20019;-81
2023/03/02 10:51:29;;;;;;;37.33;18.65;;;5.30;1.00;;;;;;6243659;22;20051;-80
2023/03/02 10:54:12;;;;;;;38.10;18.30;;;5.20;1.00;;;;;;6219258;22;20615;-80
2023/03/02 10:56:41;;;;;;;37.88;19.20;;;5.10;1.00;;;;;;6243157;22;20019;-80
2023/03/02 10:59:28;;;;;;;42.55;19.50;;;5.00;1.00;;;;;;6243292;22;20022;-82
2023/03/02 11:01:59;;;;;;;37.55;19.08;;;4.90;1.00;;;;;;6243385;22;20026;-81
2023/03/02 11:04:25;;;;;;;38.88;18.55;;;5.00;1.00;;;;;;6244577;22;20019;-81
2023/03/02 11:06:52;;;;;;;36.72;18.17;;;4.90;1.00;;;;;;6244136;22;20074;-80
2023/03/02 11:09:18;;;;;;;38.28;18.85;;;4.90;1.00;;;;;;6243954;22;20016;-81
2023/03/02 11:11:55;;;;;;;40.05;18.23;;;4.90;1.00;;;;;;6243368;22;20037;-80
2023/03/02 11:14:22;;;;;;;33.88;17.67;;;4.90;1.00;;;;;;6243841;22;20024;-81
2023/03/02 11:16:51;;;;;;;37.78;18.67;;;4.80;1.00;;;;;;6218736;22;20081;-81
2023/03/02 11:19:35;;;;;;;36.75;18.02;;;4.70;1.00;;;;;;6271571;22;20020;-81
2023/03/02 11:22:49;;;;;;;37.83;17.83;;;4.70;1.00;;;;;;6272469;22;20020;-81
2023/03/02 11:25:25;;;;;;;35.60;16.75;;;4.80;1.00;;;;;;6209996;22;20019;-81
2023/03/02 11:27:58;;;;;;;33.63;17.38;;;5.00;1.00;;;;;;6218301;22;20345;-84
2023/03/02 11:30:25;;;;;;;38.28;18.45;;;5.20;1.00;;;;;;6244209;22;20400;-81
2023/03/02 11:32:54;;;;;;;36.13;18.52;;;5.20;1.00;;;;;;6272011;22;20011;-82
2023/03/02 11:35:39;;;;;;;34.53;18.30;;;5.60;1.00;;;;;;6244035;22;20020;-82
2023/03/02 11:38:23;;;;;;;30.85;16.63;;;5.90;1.00;;;;;;6244663;22;20016;-81
2023/03/02 11:41:11;;;;;;;34.60;18.60;;;6.20;1.00;;;;;;6272750;22;20055;-82
2023/03/02 11:43:37;;;;;;;35.40;17.83;;;6.50;1.00;;;;;;6243905;22;20162;-81
2023/03/02 11:46:05;;;;;;;33.70;16.65;;;6.70;1.00;;;;;;6272222;22;20479;-82
2023/03/02 11:48:34;;;;;;;32.13;17.77;;;6.80;1.00;;;;;;6244105;22;20023;-82
2023/03/02 11:51:13;;;;;;;34.25;16.77;;;6.90;99.90;;;;;;6246339;22;20447;-81
2023/03/02 11:53:45;;;;;;;29.73;15.95;;;7.10;99.90;;;;;;6218914;22;20596;-84
2023/03/02 11:56:11;;;;;;;32.05;16.65;;;7.10;99.90;;;;;;6246415;22;20059;-83
2023/03/02 11:58:38;;;;;;;30.02;16.20;;;6.80;99.90;;;;;;6243869;22;20727;-82
2023/03/02 12:01:06;;;;;;;29.55;15.80;;;6.80;99.90;;;;;;6244951;22;20024;-82
2023/03/02 12:03:31;;;;;;;28.25;15.38;;;6.90;99.90;;;;;;6272761;22;20024;-82
2023/03/02 12:06:15;;;;;;;32.42;17.05;;;6.90;99.90;;;;;;6245417;22;20461;-81
2023/03/02 12:08:44;;;;;;;27.02;15.38;;;6.90;99.90;;;;;;6244756;22;20030;-81
2023/03/02 12:11:15;;;;;;;28.38;15.40;;;6.80;99.90;;;;;;6272833;22;20020;-81
2023/03/02 12:13:56;;;;;;;30.50;16.25;;;6.90;99.90;;;;;;6243537;22;20077;-81
2023/03/02 12:16:39;;;;;;;29.30;15.23;;;7.00;99.90;;;;;;6246165;22;20382;-80
2023/03/02 12:19:37;;;;;;;28.30;15.85;;;7.10;99.90;;;;;;6271743;22;20043;-81
2023/03/02 12:22:11;;;;;;;26.48;14.40;;;7.20;99.90;;;;;;6244011;22;20085;-81
2023/03/02 12:24:39;;;;;;;25.83;13.10;;;7.70;99.90;;;;;;6246460;22;20018;-81
2023/03/02 12:27:19;;;;;;;24.80;12.50;;;8.00;99.90;;;;;;6271580;22;20062;-81
2023/03/02 12:29:49;;;;;;;23.25;11.70;;;7.90;99.90;;;;;;6219460;22;20073;-81
2023/03/02 12:32:17;;;;;;;18.80;11.50;;;7.60;99.90;;;;;;6271932;22;20028;-81
2023/03/02 12:35:12;;;;;;;19.67;11.35;;;7.40;99.90;;;;;;6271077;22;20415;-81
2023/03/02 12:37:46;;;;;;;20.83;12.13;;;7.30;99.90;;;;;;6245315;22;20051;-82
2023/03/02 12:40:24;;;;;;;20.50;11.55;;;7.40;99.90;;;;;;6244032;22;20094;-81
2023/03/02 12:43:08;;;;;;;21.75;11.77;;;7.50;99.90;;;;;;6243268;22;20094;-81
2023/03/02 12:45:54;;;;;;;20.75;11.52;;;7.60;99.90;;;;;;6219226;22;20446;-81
2023/03/02 12:48:26;;;;;;;19.05;10.45;;;7.80;99.90;;;;;;6245699;22;20016;-81
2023/03/02 12:50:58;;;;;;;20.23;10.82;;;8.10;99.90;;;;;;6271421;22;20128;-82
2023/03/02 12:53:24;;;;;;;17.85;10.65;;;8.10;99.90;;;;;;6271927;22;20030;-81
2023/03/02 12:55:49;;;;;;;17.40;9.73;;;7.70;99.90;;;;;;6271503;22;20024;-81
2023/03/02 12:58:23;;;;;;;20.20;10.98;;;7.40;99.90;;;;;;6272526;22;20062;-81
2023/03/02 13:00:55;;;;;;;21.35;11.65;;;7.10;99.90;;;;;;6244573;22;20023;-82
2023/03/02 13:03:21;;;;;;;20.45;11.07;;;7.40;99.90;;;;;;6272032;22;20030;-81
2023/03/02 13:05:47;;;;;;;20.05;10.27;;;7.50;99.90;;;;;;6271143;22;20016;-81
2023/03/02 13:08:20;;;;;;;19.52;10.77;;;7.40;99.90;;;;;;6271536;22;20099;-81
2023/03/02 13:10:57;;;;;;;18.80;11.38;;;7.40;99.90;;;;;;6271314;22;20026;-83